Time;durP1;ratioP1;P1;durP2;ratioP2;P2;SDS_P1;SDS_P2;PMS_P1;PMS_P2;Temp;Humidity;BMP_temperature;BMP_pressure;BME280_temperature;BME280_humidity;BME280_pressure;Samples;Min_cycle;Max_cycle;Signal;HPM_P1;HPM_P2
2021/12/05 00:17:49;;;;;;;22.67;11.60;;;4.20;99.90;;;;;;4709641;30;20113;-82
2021/12/05 00:20:51;;;;;;;22.37;10.53;;;4.20;99.90;;;;;;4698355;30;20049;-81
2021/12/05 00:23:25;;;;;;;22.50;10.98;;;4.30;99.90;;;;;;4694664;30;20069;-81
2021/12/05 00:25:54;;;;;;;20.03;10.53;;;4.30;99.90;;;;;;4703972;30;20055;-81
2021/12/05 00:34:02;;;;;;;20.27;10.20;;;4.30;99.90;;;;;;4715146;30;20056;-81
2021/12/05 00:50:16;;;;;;;19.08;9.00;;;4.20;99.90;;;;;;4702492;30;20091;-82
2021/12/05 01:04:27;;;;;;;14.97;8.47;;;4.10;99.90;;;;;;4705046;30;20072;-82
2021/12/05 01:16:33;;;;;;;17.73;8.70;;;4.10;99.90;;;;;;4713336;30;20474;-79
2021/12/05 01:18:59;;;;;;;15.03;7.93;;;4.10;99.90;;;;;;4692567;30;20084;-81
2021/12/05 01:21:25;;;;;;;12.90;7.67;;;4.10;99.90;;;;;;4693075;30;20052;-81
2021/12/05 01:24:01;;;;;;;13.10;7.40;;;4.00;99.90;;;;;;4690321;30;20061;-82
2021/12/05 01:26:38;;;;;;;13.93;7.90;;;4.10;99.90;;;;;;4694556;30;20100;-82
2021/12/05 01:29:34;;;;;;;14.50;7.63;;;4.00;99.90;;;;;;4688682;30;20049;-80
2021/12/05 01:34:48;;;;;;;15.00;7.77;;;4.00;99.90;;;;;;4691235;30;20148;-80
2021/12/05 01:40:02;;;;;;;12.13;7.40;;;4.00;99.90;;;;;;4698019;30;20124;-82
2021/12/05 02:33:52;;;;;;;12.67;6.63;;;4.30;99.90;;;;;;4712151;30;20116;-80
2021/12/05 02:39:05;;;;;;;15.80;8.27;;;4.20;99.90;;;;;;4688635;30;20053;-81
2021/12/05 02:41:41;;;;;;;17.27;7.80;;;4.30;99.90;;;;;;4672241;30;20080;-82
2021/12/05 02:44:15;;;;;;;13.53;8.10;;;4.30;99.90;;;;;;4687370;30;20079;-81
2021/12/05 02:46:45;;;;;;;13.63;7.40;;;4.40;99.90;;;;;;4676913;30;20056;-81
2021/12/05 02:49:14;;;;;;;16.13;8.50;;;4.40;99.90;;;;;;4709295;30;20064;-81
2021/12/05 02:51:40;;;;;;;17.33;8.97;;;4.40;99.90;;;;;;4712321;30;20129;-81
2021/12/05 02:54:13;;;;;;;18.23;9.03;;;4.30;99.90;;;;;;4708002;30;20053;-81
2021/12/05 02:56:46;;;;;;;18.30;8.57;;;4.30;99.90;;;;;;4698261;30;20056;-81
2021/12/05 02:59:25;;;;;;;18.83;10.10;;;4.30;99.90;;;;;;4692386;30;20414;-81
2021/12/05 03:01:58;;;;;;;24.60;9.83;;;4.30;99.90;;;;;;4683332;30;20099;-81
2021/12/05 03:04:28;;;;;;;19.13;9.67;;;4.30;99.90;;;;;;4692289;30;20052;-82
2021/12/05 03:06:56;;;;;;;24.43;11.10;;;4.30;99.90;;;;;;4667637;30;20056;-81
2021/12/05 03:09:22;;;;;;;25.53;10.83;;;4.30;99.90;;;;;;4674922;30;20064;-82
2021/12/05 03:11:51;;;;;;;23.27;11.83;;;4.30;99.90;;;;;;4672790;30;20107;-81
2021/12/05 03:14:16;;;;;;;26.53;11.87;;;4.30;99.90;;;;;;4685236;30;20577;-81
2021/12/05 03:16:43;;;;;;;25.77;11.13;;;4.40;99.90;;;;;;4701357;30;20566;-81
2021/12/05 03:19:11;;;;;;;24.13;12.20;;;4.40;99.90;;;;;;4714736;30;20418;-81
2021/12/05 03:21:39;;;;;;;27.57;12.47;;;4.30;99.90;;;;;;4704898;30;20053;-81
2021/12/05 03:24:06;;;;;;;26.77;12.40;;;4.30;99.90;;;;;;4690797;30;20095;-81
2021/12/05 03:26:37;;;;;;;25.73;12.37;;;4.30;99.90;;;;;;4686853;30;20450;-81
2021/12/05 03:29:05;;;;;;;26.03;12.90;;;4.30;99.90;;;;;;4711960;30;20457;-82
2021/12/05 03:31:31;;;;;;;23.73;13.03;;;4.30;99.90;;;;;;4708727;30;20084;-81
2021/12/05 03:33:58;;;;;;;25.13;13.20;;;4.30;99.90;;;;;;4698454;30;20096;-82
2021/12/05 03:36:25;;;;;;;26.67;12.90;;;4.30;99.90;;;;;;4695601;30;20049;-82
2021/12/05 03:38:51;;;;;;;25.30;12.53;;;4.30;99.90;;;;;;4691009;30;20048;-82
2021/12/05 03:41:17;;;;;;;25.13;12.97;;;4.30;99.90;;;;;;4659038;30;20053;-81
2021/12/05 03:43:45;;;;;;;25.70;14.10;;;4.30;99.90;;;;;;4700411;30;20072;-81
2021/12/05 03:46:11;;;;;;;25.20;13.80;;;4.30;99.90;;;;;;4704068;30;20045;-81
2021/12/05 03:48:41;;;;;;;26.50;14.67;;;4.30;99.90;;;;;;4691078;30;20426;-81
2021/12/05 03:51:09;;;;;;;26.83;13.83;;;4.40;99.90;;;;;;4693400;30;20115;-81
2021/12/05 03:53:35;;;;;;;36.13;14.57;;;4.30;99.90;;;;;;4685372;30;20052;-81
2021/12/05 03:56:04;;;;;;;24.60;13.87;;;4.20;99.90;;;;;;4702585;30;20053;-81
2021/12/05 03:58:31;;;;;;;29.00;14.30;;;4.30;99.90;;;;;;4677737;30;20045;-81
2021/12/05 04:01:00;;;;;;;35.57;14.93;;;4.30;99.90;;;;;;4694302;30;20132;-81
2021/12/05 04:03:27;;;;;;;31.20;15.77;;;4.30;99.90;;;;;;4694129;30;20060;-80
2021/12/05 04:05:54;;;;;;;31.90;14.40;;;4.30;99.90;;;;;;4692866;30;20056;-80
2021/12/05 04:08:23;;;;;;;27.20;14.27;;;4.30;99.90;;;;;;4702779;30;20045;-81
2021/12/05 04:10:53;;;;;;;30.40;14.43;;;4.20;99.90;;;;;;4689719;30;20132;-81
2021/12/05 04:13:19;;;;;;;26.90;13.60;;;4.20;99.90;;;;;;4716089;30;20047;-81
2021/12/05 04:15:47;;;;;;;24.77;13.60;;;4.20;99.90;;;;;;4689276;30;20103;-81
2021/12/05 04:18:12;;;;;;;32.40;14.03;;;4.10;99.90;;;;;;4707576;30;20049;-81
2021/12/05 04:20:38;;;;;;;26.80;13.17;;;4.10;99.90;;;;;;4690757;30;20383;-81
2021/12/05 04:23:05;;;;;;;29.00;13.47;;;4.10;99.90;;;;;;4682300;30;20061;-81
2021/12/05 04:25:36;;;;;;;30.80;13.77;;;4.10;99.90;;;;;;4685573;30;20203;-81
2021/12/05 04:28:03;;;;;;;24.80;13.00;;;4.10;99.90;;;;;;4684874;30;20517;-81
2021/12/05 04:30:29;;;;;;;23.43;12.20;;;4.10;99.90;;;;;;4692947;30;20115;-81
2021/12/05 04:32:55;;;;;;;21.83;11.50;;;4.10;99.90;;;;;;4666796;30;20045;-81
2021/12/05 04:35:20;;;;;;;23.40;11.77;;;4.10;99.90;;;;;;4690905;30;20057;-81
2021/12/05 04:37:46;;;;;;;22.80;10.73;;;4.00;99.90;;;;;;4671330;30;20057;-81
2021/12/05 04:40:13;;;;;;;27.80;11.67;;;4.10;99.90;;;;;;4687790;30;20045;-81
2021/12/05 04:42:40;;;;;;;23.33;10.57;;;4.00;99.90;;;;;;4705926;30;20053;-81
2021/12/05 04:45:11;;;;;;;22.27;11.83;;;4.00;99.90;;;;;;4679786;30;20488;-81
2021/12/05 04:47:38;;;;;;;18.02;11.02;;;4.00;99.90;;;;;;4710932;30;20049;-81
2021/12/05 04:50:04;;;;;;;25.53;11.53;;;4.00;99.90;;;;;;4708785;30;20057;-81
2021/12/05 04:52:30;;;;;;;22.60;11.20;;;4.00;99.90;;;;;;4687048;30;20505;-81
2021/12/05 04:54:56;;;;;;;20.67;10.43;;;4.00;99.90;;;;;;4699042;30;20081;-81
2021/12/05 04:57:22;;;;;;;24.03;10.57;;;3.90;99.90;;;;;;4698644;30;20099;-81
2021/12/05 04:59:50;;;;;;;22.63;10.43;;;4.00;99.90;;;;;;4691063;30;20057;-81
2021/12/05 05:02:18;;;;;;;22.80;9.83;;;4.00;99.90;;;;;;4700038;30;20406;-81
2021/12/05 05:04:48;;;;;;;19.33;9.57;;;3.90;99.90;;;;;;4701829;30;20041;-81
2021/12/05 05:07:25;;;;;;;20.40;9.90;;;3.90;99.90;;;;;;4707807;30;20049;-81
2021/12/05 05:09:59;;;;;;;24.37;9.33;;;3.90;99.90;;;;;;4689915;30;20048;-81
2021/12/05 05:12:25;;;;;;;21.63;9.27;;;4.00;99.90;;;;;;4706541;30;20136;-81
2021/12/05 05:14:53;;;;;;;22.17;9.50;;;3.90;99.90;;;;;;4671710;30;20049;-81
2021/12/05 05:17:19;;;;;;;23.83;9.80;;;3.90;99.90;;;;;;4673259;30;20565;-81
2021/12/05 05:19:49;;;;;;;22.13;9.77;;;3.90;99.90;;;;;;4707542;30;20522;-81
2021/12/05 05:28:28;;;;;;;19.17;8.63;;;3.80;99.90;;;;;;4703219;30;20494;-81
2021/12/05 05:44:00;;;;;;;15.70;7.53;;;3.70;99.90;;;;;;4692233;30;20064;-81
2021/12/05 05:51:50;;;;;;;16.73;8.03;;;3.70;99.90;;;;;;4710851;30;20072;-81
2021/12/05 05:54:18;;;;;;;26.87;8.00;;;3.60;99.90;;;;;;4677381;30;20494;-81
2021/12/05 05:56:45;;;;;;;18.70;7.70;;;3.70;99.90;;;;;;4688620;30;20166;-81
2021/12/05 06:01:58;;;;;;;17.80;7.73;;;3.60;99.90;;;;;;4689713;30;20046;-80
2021/12/05 06:04:24;;;;;;;18.13;7.47;;;3.60;99.90;;;;;;4697945;30;20048;-81
2021/12/05 06:06:50;;;;;;;17.03;7.57;;;3.60;99.90;;;;;;4707286;30;20498;-81
2021/12/05 06:09:16;;;;;;;17.63;7.60;;;3.60;99.90;;;;;;4712103;30;20053;-81
2021/12/05 06:11:42;;;;;;;16.83;7.10;;;3.60;99.90;;;;;;4691089;30;20045;-80
2021/12/05 06:14:07;;;;;;;15.70;7.17;;;3.60;99.90;;;;;;4716202;30;20414;-81
2021/12/05 06:16:33;;;;;;;18.40;7.07;;;3.60;99.90;;;;;;4685660;30;20056;-81
2021/12/05 06:18:59;;;;;;;21.23;8.03;;;3.60;99.90;;;;;;4698862;30;20642;-81
2021/12/05 06:21:24;;;;;;;17.50;7.43;;;3.50;99.90;;;;;;4685063;30;20099;-81
2021/12/05 06:23:50;;;;;;;14.50;7.80;;;3.60;99.90;;;;;;4686158;30;20076;-81
2021/12/05 06:26:22;;;;;;;21.03;7.40;;;3.50;99.90;;;;;;4690723;30;20057;-81
2021/12/05 06:42:32;;;;;;;18.13;7.27;;;3.60;99.90;;;;;;4708286;30;20053;-79
2021/12/05 06:47:39;;;;;;;19.40;7.87;;;3.60;99.90;;;;;;4693729;30;20061;-78
2021/12/05 06:50:06;;;;;;;18.13;7.77;;;3.60;99.90;;;;;;4686255;30;20063;-79
2021/12/05 06:52:32;;;;;;;21.30;8.33;;;3.60;99.90;;;;;;4690214;30;20532;-80
2021/12/05 06:54:58;;;;;;;16.73;8.03;;;3.60;99.90;;;;;;4708708;30;20053;-80
2021/12/05 06:57:23;;;;;;;18.57;7.93;;;3.60;99.90;;;;;;4682637;30;20057;-81
2021/12/05 06:59:49;;;;;;;18.33;9.10;;;3.60;99.90;;;;;;4685148;30;20049;-82
2021/12/05 07:02:18;;;;;;;17.77;7.93;;;3.60;99.90;;;;;;4687213;30;20279;-79
2021/12/05 07:07:26;;;;;;;16.57;7.57;;;3.70;99.90;;;;;;4708202;30;20144;-82
2021/12/05 07:09:53;;;;;;;15.87;7.77;;;3.60;99.90;;;;;;4685824;30;20080;-82
2021/12/05 07:15:07;;;;;;;18.97;8.80;;;3.60;99.90;;;;;;4708280;30;20064;-82
2021/12/05 07:25:47;;;;;;;19.40;8.67;;;3.70;99.90;;;;;;4701950;30;20051;-81
2021/12/05 07:44:11;;;;;;;22.40;10.37;;;3.80;99.90;;;;;;4657308;30;20408;-82
2021/12/05 07:46:37;;;;;;;22.67;9.13;;;3.80;99.90;;;;;;4694734;30;20065;-81
2021/12/05 07:49:07;;;;;;;25.97;9.97;;;3.80;99.90;;;;;;4689299;30;20045;-82
2021/12/05 07:51:38;;;;;;;20.37;8.90;;;3.80;99.90;;;;;;4707110;30;20065;-81
2021/12/05 07:56:46;;;;;;;24.83;9.63;;;3.90;99.90;;;;;;4699213;30;20057;-81
2021/12/05 08:15:41;;;;;;;26.47;10.13;;;4.00;99.90;;;;;;4718853;30;20143;-81
2021/12/05 08:18:07;;;;;;;22.83;9.53;;;4.10;99.90;;;;;;4708141;30;20196;-81
2021/12/05 08:20:37;;;;;;;25.33;9.97;;;4.10;99.90;;;;;;4693868;30;20128;-81
2021/12/05 08:23:04;;;;;;;21.60;10.03;;;4.20;99.90;;;;;;4719105;30;20076;-81
2021/12/05 08:25:33;;;;;;;21.63;9.53;;;4.10;99.90;;;;;;4701805;30;20052;-81
2021/12/05 08:28:17;;;;;;;24.93;10.30;;;4.10;99.90;;;;;;4701713;30;20345;-82
2021/12/05 08:30:48;;;;;;;23.73;10.37;;;4.10;99.90;;;;;;4687234;30;20049;-81
2021/12/05 08:33:46;;;;;;;22.67;10.20;;;4.20;99.90;;;;;;4708967;30;20056;-81
2021/12/05 09:22:03;;;;;;;31.07;13.10;;;4.50;99.90;;;;;;4707656;30;20045;-81
2021/12/05 09:27:40;;;;;;;22.07;10.90;;;4.60;99.90;;;;;;4700635;30;20053;-81
2021/12/05 10:10:26;;;;;;;14.57;7.83;;;4.90;99.90;;;;;;4689249;30;20084;-82
2021/12/05 10:15:45;;;;;;;22.87;9.33;;;5.00;99.90;;;;;;4706875;30;20053;-81
2021/12/05 10:36:25;;;;;;;14.67;7.63;;;5.10;99.90;;;;;;4696435;30;20450;-82
2021/12/05 10:38:23;;;;;;;20.23;8.90;;;5.10;99.90;;;;;;4687163;30;20059;-82
2021/12/05 10:41:18;;;;;;;15.43;8.63;;;5.20;99.90;;;;;;4679157;30;20124;-81
2021/12/05 10:43:46;;;;;;;15.37;8.40;;;5.20;99.90;;;;;;4686816;30;20083;-82
2021/12/05 10:46:15;;;;;;;16.87;8.50;;;5.20;99.90;;;;;;4695517;30;20050;-81
2021/12/05 10:49:08;;;;;;;16.77;8.97;;;5.20;99.90;;;;;;4684869;30;20048;-81
2021/12/05 10:51:55;;;;;;;17.20;8.23;;;5.30;99.90;;;;;;4681201;30;20049;-81
2021/12/05 10:54:24;;;;;;;17.07;7.97;;;5.20;99.90;;;;;;4703409;30;20053;-81
2021/12/05 10:56:54;;;;;;;20.33;9.10;;;5.20;99.90;;;;;;4683206;30;20197;-81
2021/12/05 10:59:26;;;;;;;18.93;8.53;;;5.30;99.90;;;;;;4684320;30;20045;-82
2021/12/05 11:01:58;;;;;;;14.33;8.57;;;5.30;99.90;;;;;;4681052;30;20050;-82
2021/12/05 11:04:28;;;;;;;15.57;7.70;;;5.20;99.90;;;;;;4696129;30;20499;-82
2021/12/05 11:07:08;;;;;;;14.90;7.60;;;5.30;99.90;;;;;;4677392;30;20050;-81
2021/12/05 11:09:40;;;;;;;15.27;7.63;;;5.30;99.90;;;;;;4692825;30;20052;-82
2021/12/05 11:12:09;;;;;;;17.80;8.27;;;5.30;99.90;;;;;;4687683;30;20053;-81
2021/12/05 11:14:39;;;;;;;20.63;8.40;;;5.20;99.90;;;;;;4690508;30;20057;-81
2021/12/05 11:17:18;;;;;;;17.90;8.50;;;5.30;99.90;;;;;;4692676;30;20046;-81
2021/12/05 11:20:01;;;;;;;16.10;7.77;;;5.20;99.90;;;;;;4699068;30;20549;-82
2021/12/05 11:22:29;;;;;;;18.67;9.00;;;5.20;99.90;;;;;;4681113;30;20053;-81
2021/12/05 11:25:10;;;;;;;15.33;7.93;;;5.20;99.90;;;;;;4714884;30;20546;-81
2021/12/05 11:27:47;;;;;;;15.93;7.70;;;5.20;99.90;;;;;;4686525;30;20120;-82
2021/12/05 11:30:34;;;;;;;14.07;7.23;;;5.20;99.90;;;;;;4677146;30;20054;-81
2021/12/05 11:33:18;;;;;;;14.07;7.33;;;5.20;99.90;;;;;;4702233;30;20407;-81
2021/12/05 11:35:53;;;;;;;16.60;8.50;;;5.20;99.90;;;;;;4702405;30;20152;-81
2021/12/05 11:38:23;;;;;;;16.57;7.27;;;5.20;99.90;;;;;;4714017;30;20592;-81
2021/12/05 11:41:06;;;;;;;17.43;7.40;;;5.20;99.90;;;;;;4704411;30;20053;-81
2021/12/05 11:43:44;;;;;;;12.97;7.87;;;5.20;99.90;;;;;;4680720;30;20041;-81
2021/12/05 11:46:17;;;;;;;13.47;7.90;;;5.20;99.90;;;;;;4709515;30;20055;-81
2021/12/05 11:49:03;;;;;;;16.67;8.80;;;5.30;99.90;;;;;;4677941;30;20046;-81
2021/12/05 11:51:38;;;;;;;17.87;8.13;;;5.30;99.90;;;;;;4702229;30;20041;-82
2021/12/05 11:54:26;;;;;;;12.03;7.53;;;5.30;99.90;;;;;;4683198;30;20053;-81
2021/12/05 11:56:57;;;;;;;16.23;7.90;;;5.20;99.90;;;;;;4683171;30;20046;-81
2021/12/05 11:59:22;;;;;;;21.17;7.57;;;5.30;99.90;;;;;;4689915;30;20491;-81
2021/12/05 12:01:52;;;;;;;18.03;8.17;;;5.30;99.90;;;;;;4709864;30;20104;-81
2021/12/05 12:04:21;;;;;;;14.77;7.23;;;5.30;99.90;;;;;;4690957;30;20040;-81
2021/12/05 12:07:06;;;;;;;13.47;7.80;;;5.30;99.90;;;;;;4693339;30;20091;-81
2021/12/05 12:09:32;;;;;;;13.93;7.20;;;5.30;99.90;;;;;;4696230;30;20060;-81
2021/12/05 12:11:59;;;;;;;16.03;7.80;;;5.30;99.90;;;;;;4701591;30;20053;-81
2021/12/05 12:14:27;;;;;;;11.03;7.33;;;5.30;99.90;;;;;;4686836;30;20132;-81
2021/12/05 12:16:53;;;;;;;14.67;7.67;;;5.40;99.90;;;;;;4655195;30;20134;-81
2021/12/05 12:19:22;;;;;;;13.83;7.33;;;5.40;99.90;;;;;;4699380;30;20045;-80
2021/12/05 12:21:51;;;;;;;17.27;7.70;;;5.40;99.90;;;;;;4702973;30;20073;-80
2021/12/05 12:24:17;;;;;;;16.60;7.77;;;5.40;99.90;;;;;;4687722;30;20500;-80
2021/12/05 12:26:44;;;;;;;13.17;7.60;;;5.40;99.90;;;;;;4693477;30;20148;-81
2021/12/05 12:29:12;;;;;;;16.60;7.90;;;5.50;99.90;;;;;;4711454;30;20050;-81
2021/12/05 12:31:42;;;;;;;17.20;7.63;;;5.50;99.90;;;;;;4689173;30;20042;-81
2021/12/05 12:34:14;;;;;;;13.50;8.27;;;5.60;99.90;;;;;;4714714;30;20123;-81
2021/12/05 12:36:44;;;;;;;17.37;8.67;;;5.60;99.90;;;;;;4703886;30;20059;-81
2021/12/05 12:39:27;;;;;;;19.50;9.37;;;5.60;99.90;;;;;;4703370;30;20050;-81
2021/12/05 12:42:13;;;;;;;;;;;5.70;99.90;;;;;;4700577;30;20124;-81
2021/12/05 12:44:57;;;;;;;15.20;7.90;;;5.70;99.90;;;;;;4706647;30;19929;-82
2021/12/05 12:47:39;;;;;;;16.50;8.53;;;5.80;99.90;;;;;;4696000;30;20053;-81
2021/12/05 12:50:28;;;;;;;17.75;8.05;;;5.80;99.90;;;;;;4708142;30;20053;-81
2021/12/05 12:53:20;;;;;;;14.43;8.67;;;5.80;99.90;;;;;;4705220;30;20056;-81
2021/12/05 12:55:52;;;;;;;17.00;8.70;;;5.70;99.90;;;;;;4689956;30;20074;-81
2021/12/05 12:58:40;;;;;;;14.25;8.13;;;5.80;99.90;;;;;;4699540;30;20064;-81
2021/12/05 13:04:33;;;;;;;15.73;7.57;;;5.80;99.90;;;;;;4668399;30;20463;-81
2021/12/05 13:12:53;;;;;;;18.40;8.27;;;5.70;99.90;;;;;;4698766;30;20053;-82
2021/12/05 13:15:29;;;;;;;15.83;8.90;;;5.80;99.90;;;;;;4688837;30;20057;-81
2021/12/05 13:18:25;;;;;;;13.77;8.07;;;5.80;99.90;;;;;;4690730;30;20088;-81
2021/12/05 13:21:08;;;;;;;14.77;8.20;;;5.90;99.90;;;;;;4659209;30;20049;-81
2021/12/05 13:23:50;;;;;;;14.10;8.20;;;5.90;99.90;;;;;;4700271;30;20161;-82
2021/12/05 13:26:32;;;;;;;19.10;7.72;;;5.90;99.90;;;;;;4685074;30;20096;-81
2021/12/05 13:28:58;;;;;;;;;;;5.90;99.90;;;;;;4704124;30;20076;-81
2021/12/05 13:31:30;;;;;;;13.27;8.37;;;5.80;99.90;;;;;;4705715;30;19981;-81
2021/12/05 13:34:26;;;;;;;13.87;7.50;;;5.90;99.90;;;;;;4703266;30;20414;-81
2021/12/05 13:37:26;;;;;;;16.73;8.53;;;5.90;99.90;;;;;;4689219;30;20434;-82
2021/12/05 13:40:09;;;;;;;14.03;7.33;;;5.90;99.90;;;;;;4657665;30;20345;-82
2021/12/05 13:42:36;;;;;;;14.00;7.43;;;5.90;99.90;;;;;;4684870;30;20045;-81
2021/12/05 13:45:03;;;;;;;16.60;6.93;;;6.00;99.90;;;;;;4703514;30;20170;-81
2021/12/05 13:47:31;;;;;;;13.90;7.17;;;6.00;99.90;;;;;;4698235;30;20514;-81
2021/12/05 13:50:18;;;;;;;12.70;7.27;;;5.90;99.90;;;;;;4709650;30;21247;-81
2021/12/05 13:53:02;;;;;;;13.90;7.33;;;6.00;99.90;;;;;;4699644;30;20084;-82
2021/12/05 13:55:38;;;;;;;12.43;7.23;;;6.00;99.90;;;;;;4696450;30;20399;-81
2021/12/05 13:58:36;;;;;;;10.03;6.77;;;6.00;99.90;;;;;;4685211;30;20499;-81
2021/12/05 14:01:08;;;;;;;11.27;6.70;;;6.00;99.90;;;;;;4706225;30;20044;-81
2021/12/05 14:03:51;;;;;;;11.65;6.95;;;5.90;99.90;;;;;;4687681;30;20050;-81
2021/12/05 14:06:31;;;;;;;12.93;7.87;;;5.90;99.90;;;;;;4685322;30;20519;-81
2021/12/05 14:09:04;;;;;;;9.73;6.90;;;5.90;99.90;;;;;;4685408;30;20054;-82
2021/12/05 14:11:30;;;;;;;11.80;7.53;;;5.90;99.90;;;;;;4704521;30;20445;-81
2021/12/05 14:13:56;;;;;;;12.60;7.33;;;5.90;99.90;;;;;;4703016;30;20045;-81
2021/12/05 14:16:31;;;;;;;12.13;7.33;;;5.90;99.90;;;;;;4696609;30;20565;-81
2021/12/05 14:18:56;;;;;;;11.50;7.23;;;5.80;99.90;;;;;;4703750;30;20052;-81
2021/12/05 14:21:24;;;;;;;13.83;7.27;;;5.80;99.90;;;;;;4694885;30;20056;-81
2021/12/05 14:23:52;;;;;;;13.73;7.50;;;5.80;99.90;;;;;;4688643;30;20064;-81
2021/12/05 14:26:20;;;;;;;11.27;6.60;;;5.70;99.90;;;;;;4702716;30;20056;-82
2021/12/05 14:29:12;;;;;;;12.43;7.67;;;5.70;99.90;;;;;;4680133;30;20052;-81
2021/12/05 14:31:51;;;;;;;13.13;8.27;;;5.70;99.90;;;;;;4693576;30;20049;-81
2021/12/05 14:34:17;;;;;;;11.90;7.57;;;5.60;99.90;;;;;;4685393;30;20083;-82
2021/12/05 14:36:50;;;;;;;12.03;7.67;;;5.60;99.90;;;;;;4697108;30;20056;-82
2021/12/05 14:39:27;;;;;;;14.43;8.40;;;5.60;99.90;;;;;;4716831;30;20124;-82
2021/12/05 14:42:00;;;;;;;14.20;8.40;;;5.60;99.90;;;;;;4693439;30;20045;-82
2021/12/05 14:44:27;;;;;;;15.83;8.87;;;5.60;99.90;;;;;;4697603;30;20046;-82
2021/12/05 14:47:09;;;;;;;17.37;10.07;;;5.50;99.90;;;;;;4681752;30;20067;-82
2021/12/05 14:49:44;;;;;;;16.88;9.85;;;5.50;99.90;;;;;;4704458;30;20088;-82
2021/12/05 14:52:17;;;;;;;17.70;10.33;;;5.50;99.90;;;;;;4696925;30;20045;-82
2021/12/05 14:54:44;;;;;;;16.30;9.90;;;5.50;99.90;;;;;;4705388;30;20054;-82
2021/12/05 14:57:22;;;;;;;14.97;8.83;;;5.50;99.90;;;;;;4695303;30;20057;-81
2021/12/05 14:59:50;;;;;;;15.97;9.97;;;5.50;99.90;;;;;;4699143;30;20064;-81
2021/12/05 15:02:18;;;;;;;18.47;9.70;;;5.50;99.90;;;;;;4707477;30;20049;-81
2021/12/05 15:04:51;;;;;;;15.77;9.70;;;5.50;99.90;;;;;;4691458;30;20053;-82
2021/12/05 15:07:22;;;;;;;18.47;10.57;;;5.40;99.90;;;;;;4690593;30;20049;-82
2021/12/05 15:09:56;;;;;;;21.60;11.40;;;5.40;99.90;;;;;;4682453;30;20054;-81
2021/12/05 15:12:32;;;;;;;21.70;11.60;;;5.40;99.90;;;;;;4719867;30;20057;-81
2021/12/05 15:15:01;;;;;;;19.70;11.90;;;5.40;99.90;;;;;;4703780;30;20057;-81
2021/12/05 15:17:32;;;;;;;21.57;11.60;;;5.40;99.90;;;;;;4711864;30;20057;-82
2021/12/05 15:20:03;;;;;;;21.73;12.30;;;5.40;99.90;;;;;;4692105;30;20068;-81
2021/12/05 15:22:29;;;;;;;22.38;12.70;;;5.40;99.90;;;;;;4716588;30;20406;-82
2021/12/05 15:24:58;;;;;;;22.10;12.63;;;5.30;99.90;;;;;;4705643;30;20133;-81
2021/12/05 15:27:30;;;;;;;23.63;13.13;;;5.30;99.90;;;;;;4702731;30;20058;-81
2021/12/05 15:30:01;;;;;;;24.67;11.85;;;5.30;99.90;;;;;;4710190;30;20088;-82
2021/12/05 15:32:29;;;;;;;24.67;12.67;;;5.30;99.90;;;;;;4697836;30;20430;-81
2021/12/05 15:34:58;;;;;;;21.20;12.37;;;5.30;99.90;;;;;;4704953;30;20461;-81
2021/12/05 15:37:24;;;;;;;22.30;12.50;;;5.20;99.90;;;;;;4684928;30;20052;-81
2021/12/05 15:39:54;;;;;;;20.67;12.20;;;5.20;99.90;;;;;;4691275;30;20033;-81
2021/12/05 15:42:29;;;;;;;21.23;12.60;;;5.20;99.90;;;;;;4676416;30;20065;-81
2021/12/05 15:44:57;;;;;;;20.87;11.80;;;5.20;99.90;;;;;;4684081;30;20498;-81
2021/12/05 15:47:26;;;;;;;27.07;13.53;;;5.20;99.90;;;;;;4689856;30;20140;-82
2021/12/05 15:50:18;;;;;;;22.67;13.53;;;5.20;99.90;;;;;;4692958;30;20092;-82
2021/12/05 15:52:48;;;;;;;28.30;13.80;;;5.20;99.90;;;;;;4691473;30;20084;-82
2021/12/05 15:55:20;;;;;;;23.20;14.13;;;5.10;99.90;;;;;;4687798;30;20076;-83
2021/12/05 15:57:49;;;;;;;19.75;13.00;;;5.10;99.90;;;;;;4687454;30;20064;-83
2021/12/05 16:00:22;;;;;;;22.43;12.63;;;5.10;99.90;;;;;;4681731;30;20113;-84
2021/12/05 16:03:01;;;;;;;22.93;12.57;;;5.10;99.90;;;;;;4681466;30;20037;-84
2021/12/05 16:05:27;;;;;;;22.93;11.80;;;5.10;99.90;;;;;;4703186;30;20054;-84
2021/12/05 16:08:02;;;;;;;20.73;13.73;;;5.10;99.90;;;;;;4680883;30;20049;-84
2021/12/05 16:10:32;;;;;;;24.30;14.47;;;5.10;99.90;;;;;;4677674;30;20053;-84
2021/12/05 16:13:19;;;;;;;24.53;13.60;;;5.10;99.90;;;;;;4683434;30;20053;-84
2021/12/05 16:15:49;;;;;;;21.70;12.97;;;5.10;99.90;;;;;;4693192;30;20132;-84
2021/12/05 16:18:16;;;;;;;22.33;12.63;;;5.10;99.90;;;;;;4672140;30;20050;-84
2021/12/05 16:20:54;;;;;;;19.07;11.73;;;5.10;99.90;;;;;;4693226;30;20052;-84
2021/12/05 16:23:34;;;;;;;18.33;11.13;;;5.20;99.90;;;;;;4679528;30;20061;-83
2021/12/05 16:26:06;;;;;;;25.10;12.37;;;5.10;99.90;;;;;;4682542;30;20049;-84
2021/12/05 16:28:46;;;;;;;21.67;11.27;;;5.10;99.90;;;;;;4677367;30;20128;-84
2021/12/05 16:31:37;;;;;;;24.17;12.77;;;5.00;99.90;;;;;;4678646;30;20054;-84
2021/12/05 16:34:08;;;;;;;21.05;12.05;;;5.10;99.90;;;;;;4695773;30;20045;-84
2021/12/05 16:36:37;;;;;;;20.10;11.87;;;5.10;99.90;;;;;;4689628;30;20128;-84
2021/12/05 16:39:13;;;;;;;22.43;13.00;;;5.10;99.90;;;;;;4686990;30;20050;-84
2021/12/05 16:41:48;;;;;;;25.80;13.63;;;5.10;99.90;;;;;;4679626;30;20057;-84
2021/12/05 16:44:19;;;;;;;24.00;12.93;;;5.00;99.90;;;;;;4678666;30;20078;-84
2021/12/05 16:46:49;;;;;;;24.10;12.37;;;5.00;99.90;;;;;;4696908;30;20111;-85
2021/12/05 16:49:23;;;;;;;24.73;12.70;;;5.00;99.90;;;;;;4693408;30;20542;-84
2021/12/05 16:51:56;;;;;;;24.87;12.63;;;5.00;99.90;;;;;;4687150;30;20455;-84
2021/12/05 16:54:32;;;;;;;28.00;14.40;;;5.00;99.90;;;;;;4707902;30;20060;-84
2021/12/05 16:57:13;;;;;;;35.73;17.73;;;5.00;99.90;;;;;;4695994;30;20105;-83
2021/12/05 16:59:43;;;;;;;29.57;14.70;;;5.00;99.90;;;;;;4677227;30;20053;-84
2021/12/05 17:02:22;;;;;;;29.90;15.27;;;5.00;99.90;;;;;;4679950;30;20129;-85
2021/12/05 17:05:01;;;;;;;29.90;15.50;;;5.00;99.90;;;;;;4680855;30;20050;-83
2021/12/05 17:07:43;;;;;;;29.27;15.37;;;4.90;99.90;;;;;;4685790;30;20064;-84
2021/12/05 17:10:29;;;;;;;26.40;15.35;;;4.90;99.90;;;;;;4701332;30;20046;-83
2021/12/05 17:13:11;;;;;;;27.73;15.10;;;4.90;99.90;;;;;;4688907;30;20415;-83
2021/12/05 17:15:58;;;;;;;33.80;16.80;;;4.90;99.90;;;;;;4695531;30;20082;-84
2021/12/05 17:18:55;;;;;;;37.87;18.00;;;4.90;99.90;;;;;;4686366;30;20049;-83
2021/12/05 17:21:38;;;;;;;32.70;16.97;;;4.90;99.90;;;;;;4672853;30;20053;-84
2021/12/05 17:24:18;;;;;;;36.47;17.97;;;4.90;99.90;;;;;;4684315;30;20491;-83
2021/12/05 17:26:51;;;;;;;32.23;17.33;;;4.90;99.90;;;;;;4700956;30;20518;-84
2021/12/05 17:29:24;;;;;;;28.17;17.33;;;4.90;99.90;;;;;;4703395;30;20533;-84
2021/12/05 17:32:00;;;;;;;33.30;18.03;;;4.90;99.90;;;;;;4685981;30;20491;-83
2021/12/05 17:34:26;;;;;;;32.87;18.43;;;4.90;99.90;;;;;;4686793;30;20057;-83
2021/12/05 17:37:06;;;;;;;37.97;18.10;;;4.90;99.90;;;;;;4675079;30;20060;-83
2021/12/05 17:39:38;;;;;;;33.30;18.03;;;4.90;99.90;;;;;;4685837;30;20071;-84
2021/12/05 17:42:07;;;;;;;37.70;18.40;;;4.90;99.90;;;;;;4680940;30;20104;-83
2021/12/05 17:44:34;;;;;;;37.07;19.13;;;4.90;99.90;;;;;;4677618;30;20489;-83
2021/12/05 17:47:05;;;;;;;33.53;18.47;;;4.80;99.90;;;;;;4698799;30;20558;-83
2021/12/05 17:49:35;;;;;;;36.95;17.80;;;4.90;99.90;;;;;;4685017;30;20113;-83
2021/12/05 17:52:02;;;;;;;39.73;19.17;;;4.90;99.90;;;;;;4684068;30;20053;-83
2021/12/05 17:54:37;;;;;;;37.20;19.77;;;4.90;99.90;;;;;;4668141;30;20053;-83
2021/12/05 17:57:12;;;;;;;34.67;18.53;;;4.80;99.90;;;;;;4681106;30;20141;-83
2021/12/05 18:02:46;;;;;;;43.63;20.90;;;4.80;99.90;;;;;;4684270;30;20062;-81
2021/12/05 18:05:30;;;;;;;45.97;22.77;;;4.80;99.90;;;;;;4701884;30;20104;-81
2021/12/05 18:08:13;;;;;;;48.07;22.87;;;4.80;99.90;;;;;;4679504;30;20191;-83
2021/12/05 18:10:47;;;;;;;37.80;19.90;;;4.80;99.90;;;;;;4687376;30;20137;-83
2021/12/05 18:13:22;;;;;;;46.07;21.07;;;4.80;99.90;;;;;;4679135;30;20136;-83
2021/12/05 18:15:57;;;;;;;34.20;19.00;;;4.80;99.90;;;;;;4679031;30;20126;-83
2021/12/05 18:18:26;;;;;;;36.23;21.17;;;4.80;99.90;;;;;;4682573;30;20058;-83
2021/12/05 18:20:53;;;;;;;38.63;20.40;;;4.70;99.90;;;;;;4689603;30;20044;-83
2021/12/05 18:23:20;;;;;;;39.97;19.60;;;4.80;99.90;;;;;;4684444;30;20113;-83
2021/12/05 18:25:49;;;;;;;38.03;20.30;;;4.80;99.90;;;;;;4677672;30;20049;-83
2021/12/05 18:28:20;;;;;;;39.17;20.93;;;4.70;99.90;;;;;;4698073;30;20060;-82
2021/12/05 18:30:47;;;;;;;34.27;18.03;;;4.70;99.90;;;;;;4683605;30;20053;-84
2021/12/05 18:33:15;;;;;;;37.63;19.00;;;4.70;99.90;;;;;;4678036;30;20129;-82
2021/12/05 18:35:47;;;;;;;35.70;19.43;;;4.60;99.90;;;;;;4694397;30;20115;-83
2021/12/05 18:38:16;;;;;;;39.80;19.60;;;4.60;99.90;;;;;;4685404;30;20414;-82
2021/12/05 18:40:47;;;;;;;33.77;16.43;;;4.60;99.90;;;;;;4671099;30;20045;-82